sensor_id;sensor_type;location;lat;lon;timestamp;pressure;altitude;pressure_sealevel;temperature;humidity
47080;BME280;33067;49.296;14.470;2024-02-26T00:01:07;95613.27;;;5.63;41.31
47080;BME280;33067;49.296;14.470;2024-02-26T00:03:33;95603.92;;;5.76;41.02
47080;BME280;33067;49.296;14.470;2024-02-26T00:05:59;95605.44;;;5.44;41.66
47080;BME280;33067;49.296;14.470;2024-02-26T00:08:25;95605.60;;;5.37;41.69
47080;BME280;33067;49.296;14.470;2024-02-26T00:10:50;95595.94;;;5.60;41.18
47080;BME280;33067;49.296;14.470;2024-02-26T00:13:15;95592.30;;;5.51;41.13
47080;BME280;33067;49.296;14.470;2024-02-26T00:15:41;95591.72;;;5.44;41.45
47080;BME280;33067;49.296;14.470;2024-02-26T00:18:07;95589.83;;;5.60;41.26
47080;BME280;33067;49.296;14.470;2024-02-26T00:20:32;95589.17;;;5.56;41.16
47080;BME280;33067;49.296;14.470;2024-02-26T00:22:57;95591.72;;;5.54;41.58
47080;BME280;33067;49.296;14.470;2024-02-26T00:25:23;95594.59;;;5.72;41.68
47080;BME280;33067;49.296;14.470;2024-02-26T00:27:48;95595.02;;;5.54;41.45
47080;BME280;33067;49.296;14.470;2024-02-26T00:30:14;95594.14;;;5.37;41.63
47080;BME280;33067;49.296;14.470;2024-02-26T00:32:39;95592.50;;;5.49;41.54
47080;BME280;33067;49.296;14.470;2024-02-26T00:35:05;95588.90;;;5.33;41.44
47080;BME280;33067;49.296;14.470;2024-02-26T00:37:30;95586.48;;;5.94;41.03
47080;BME280;33067;49.296;14.470;2024-02-26T00:39:56;95583.71;;;5.54;41.40
47080;BME280;33067;49.296;14.470;2024-02-26T00:42:22;95584.22;;;5.54;41.27
47080;BME280;33067;49.296;14.470;2024-02-26T00:44:47;95583.09;;;5.38;41.05
47080;BME280;33067;49.296;14.470;2024-02-26T00:47:12;95584.26;;;5.38;41.39
47080;BME280;33067;49.296;14.470;2024-02-26T00:49:39;95582.01;;;5.21;41.39
47080;BME280;33067;49.296;14.470;2024-02-26T00:52:04;95574.53;;;5.56;41.04
47080;BME280;33067;49.296;14.470;2024-02-26T00:54:29;95572.96;;;5.30;41.13
47080;BME280;33067;49.296;14.470;2024-02-26T00:56:54;95569.63;;;5.57;41.10
47080;BME280;33067;49.296;14.470;2024-02-26T00:59:20;95578.87;;;5.06;41.42
47080;BME280;33067;49.296;14.470;2024-02-26T01:01:45;95578.51;;;5.60;41.17
47080;BME280;33067;49.296;14.470;2024-02-26T01:04:11;95577.55;;;5.16;41.38
47080;BME280;33067;49.296;14.470;2024-02-26T01:06:36;95577.09;;;5.22;41.43
47080;BME280;33067;49.296;14.470;2024-02-26T01:09:02;95572.07;;;5.12;41.62
47080;BME280;33067;49.296;14.470;2024-02-26T01:11:27;95567.81;;;5.09;41.57
47080;BME280;33067;49.296;14.470;2024-02-26T01:13:53;95561.72;;;5.15;41.47
47080;BME280;33067;49.296;14.470;2024-02-26T01:16:18;95563.49;;;5.37;41.61
47080;BME280;33067;49.296;14.470;2024-02-26T01:18:43;95563.90;;;5.56;41.10
47080;BME280;33067;49.296;14.470;2024-02-26T01:21:09;95562.87;;;5.06;41.28
47080;BME280;33067;49.296;14.470;2024-02-26T01:23:34;95562.68;;;5.29;41.17
47080;BME280;33067;49.296;14.470;2024-02-26T01:26:00;95562.49;;;5.10;41.20
47080;BME280;33067;49.296;14.470;2024-02-26T01:28:25;95561.88;;;4.86;41.70
47080;BME280;33067;49.296;14.470;2024-02-26T01:30:51;95556.92;;;4.73;42.21
47080;BME280;33067;49.296;14.470;2024-02-26T01:33:16;95554.44;;;4.77;42.03
47080;BME280;33067;49.296;14.470;2024-02-26T01:35:44;95552.95;;;4.79;42.15
47080;BME280;33067;49.296;14.470;2024-02-26T01:38:08;95549.54;;;4.51;42.43
47080;BME280;33067;49.296;14.470;2024-02-26T01:40:33;95547.03;;;4.92;42.26
47080;BME280;33067;49.296;14.470;2024-02-26T01:42:59;95543.49;;;4.53;42.14
47080;BME280;33067;49.296;14.470;2024-02-26T01:45:24;95543.11;;;4.73;42.66
47080;BME280;33067;49.296;14.470;2024-02-26T01:47:51;95541.29;;;4.88;42.49
47080;BME280;33067;49.296;14.470;2024-02-26T01:50:15;95541.14;;;4.74;42.57
47080;BME280;33067;49.296;14.470;2024-02-26T01:52:40;95541.47;;;4.81;42.44
47080;BME280;33067;49.296;14.470;2024-02-26T01:55:08;95542.85;;;4.59;42.48
47080;BME280;33067;49.296;14.470;2024-02-26T01:57:31;95542.49;;;4.64;42.70
47080;BME280;33067;49.296;14.470;2024-02-26T01:59:57;95540.62;;;4.90;42.93
47080;BME280;33067;49.296;14.470;2024-02-26T02:02:22;95542.87;;;4.61;43.08
47080;BME280;33067;49.296;14.470;2024-02-26T02:04:46;95539.39;;;4.79;42.90
47080;BME280;33067;49.296;14.470;2024-02-26T02:07:13;95537.63;;;5.29;42.39
47080;BME280;33067;49.296;14.470;2024-02-26T02:09:38;95539.57;;;5.27;42.44
47080;BME280;33067;49.296;14.470;2024-02-26T02:12:03;95535.26;;;5.27;42.57
47080;BME280;33067;49.296;14.470;2024-02-26T02:14:29;95529.54;;;5.24;42.31
47080;BME280;33067;49.296;14.470;2024-02-26T02:16:55;95533.48;;;4.89;42.54
47080;BME280;33067;49.296;14.470;2024-02-26T02:19:20;95532.90;;;4.80;43.81
47080;BME280;33067;49.296;14.470;2024-02-26T02:21:45;95533.60;;;4.83;43.84
47080;BME280;33067;49.296;14.470;2024-02-26T02:24:10;95530.15;;;4.44;44.72
47080;BME280;33067;49.296;14.470;2024-02-26T02:26:36;95527.89;;;4.80;45.17
47080;BME280;33067;49.296;14.470;2024-02-26T02:29:02;95526.50;;;4.62;45.23
47080;BME280;33067;49.296;14.470;2024-02-26T02:31:27;95529.02;;;4.75;45.58
47080;BME280;33067;49.296;14.470;2024-02-26T02:33:53;95523.20;;;5.23;44.94
47080;BME280;33067;49.296;14.470;2024-02-26T02:36:19;95524.65;;;4.81;45.37
47080;BME280;33067;49.296;14.470;2024-02-26T02:38:49;95519.77;;;5.07;45.11
47080;BME280;33067;49.296;14.470;2024-02-26T02:41:09;95518.21;;;5.51;44.70
47080;BME280;33067;49.296;14.470;2024-02-26T02:43:35;95515.76;;;5.14;44.57
47080;BME280;33067;49.296;14.470;2024-02-26T02:46:01;95526.23;;;4.85;45.12
47080;BME280;33067;49.296;14.470;2024-02-26T02:48:26;95529.43;;;4.66;45.19
47080;BME280;33067;49.296;14.470;2024-02-26T02:50:52;95529.11;;;5.08;45.16
47080;BME280;33067;49.296;14.470;2024-02-26T02:53:17;95531.07;;;4.94;45.29
47080;BME280;33067;49.296;14.470;2024-02-26T02:55:43;95529.96;;;5.34;44.48
47080;BME280;33067;49.296;14.470;2024-02-26T02:58:09;95525.43;;;4.77;44.92
47080;BME280;33067;49.296;14.470;2024-02-26T03:00:35;95522.38;;;5.13;44.82
47080;BME280;33067;49.296;14.470;2024-02-26T03:03:00;95522.90;;;5.45;43.98
47080;BME280;33067;49.296;14.470;2024-02-26T03:05:26;95525.24;;;5.53;44.23
47080;BME280;33067;49.296;14.470;2024-02-26T03:07:51;95532.71;;;5.06;44.49
47080;BME280;33067;49.296;14.470;2024-02-26T03:13:02;95535.22;;;5.61;43.16
47080;BME280;33067;49.296;14.470;2024-02-26T03:15:27;95537.36;;;5.73;43.50
47080;BME280;33067;49.296;14.470;2024-02-26T03:17:53;95538.23;;;5.48;43.72
47080;BME280;33067;49.296;14.470;2024-02-26T03:20:18;95540.57;;;5.38;44.07
47080;BME280;33067;49.296;14.470;2024-02-26T03:22:43;95541.58;;;5.28;43.86
47080;BME280;33067;49.296;14.470;2024-02-26T03:25:08;95545.77;;;4.94;44.25
47080;BME280;33067;49.296;14.470;2024-02-26T03:27:34;95544.43;;;5.17;44.37
47080;BME280;33067;49.296;14.470;2024-02-26T03:30:00;95544.12;;;5.40;43.91
47080;BME280;33067;49.296;14.470;2024-02-26T03:32:25;95542.65;;;5.70;43.67
47080;BME280;33067;49.296;14.470;2024-02-26T03:34:50;95545.47;;;5.45;43.75
47080;BME280;33067;49.296;14.470;2024-02-26T03:37:16;95544.40;;;5.15;44.13
47080;BME280;33067;49.296;14.470;2024-02-26T03:39:41;95554.55;;;4.92;44.42
47080;BME280;33067;49.296;14.470;2024-02-26T03:42:07;95551.14;;;5.37;44.29
47080;BME280;33067;49.296;14.470;2024-02-26T03:44:32;95548.01;;;5.46;43.52
47080;BME280;33067;49.296;14.470;2024-02-26T03:46:58;95545.42;;;5.27;43.77
47080;BME280;33067;49.296;14.470;2024-02-26T03:49:23;95546.22;;;5.66;43.45
47080;BME280;33067;49.296;14.470;2024-02-26T03:51:49;95547.77;;;5.37;44.06
47080;BME280;33067;49.296;14.470;2024-02-26T03:54:14;95547.05;;;5.51;43.71
47080;BME280;33067;49.296;14.470;2024-02-26T03:56:39;95543.03;;;5.54;43.70
47080;BME280;33067;49.296;14.470;2024-02-26T03:59:05;95541.24;;;5.43;44.09
47080;BME280;33067;49.296;14.470;2024-02-26T04:01:30;95539.63;;;5.26;44.34
47080;BME280;33067;49.296;14.470;2024-02-26T04:03:56;95538.55;;;5.30;44.19
47080;BME280;33067;49.296;14.470;2024-02-26T04:06:22;95541.05;;;5.28;44.83
47080;BME280;33067;49.296;14.470;2024-02-26T04:11:13;95539.80;;;4.81;44.41
47080;BME280;33067;49.296;14.470;2024-02-26T04:13:38;95539.06;;;4.70;44.53
47080;BME280;33067;49.296;14.470;2024-02-26T04:16:04;95541.20;;;4.92;44.69
47080;BME280;33067;49.296;14.470;2024-02-26T04:18:29;95536.15;;;5.25;43.94
47080;BME280;33067;49.296;14.470;2024-02-26T04:20:54;95533.18;;;5.26;44.17
47080;BME280;33067;49.296;14.470;2024-02-26T04:23:20;95535.29;;;5.17;44.48
47080;BME280;33067;49.296;14.470;2024-02-26T04:25:45;95533.05;;;5.24;44.31
47080;BME280;33067;49.296;14.470;2024-02-26T04:28:11;95532.05;;;5.55;43.29
47080;BME280;33067;49.296;14.470;2024-02-26T04:30:36;95532.46;;;5.05;43.95
47080;BME280;33067;49.296;14.470;2024-02-26T04:33:02;95524.93;;;5.21;44.03
47080;BME280;33067;49.296;14.470;2024-02-26T04:35:28;95523.83;;;5.19;44.33
47080;BME280;33067;49.296;14.470;2024-02-26T04:37:53;95526.38;;;5.51;44.29
47080;BME280;33067;49.296;14.470;2024-02-26T04:40:18;95533.21;;;5.22;44.36
47080;BME280;33067;49.296;14.470;2024-02-26T04:42:44;95536.64;;;5.03;44.30
47080;BME280;33067;49.296;14.470;2024-02-26T04:45:10;95541.41;;;4.85;44.64
47080;BME280;33067;49.296;14.470;2024-02-26T04:47:35;95540.06;;;5.35;44.10
47080;BME280;33067;49.296;14.470;2024-02-26T04:50:01;95543.41;;;5.26;44.27
47080;BME280;33067;49.296;14.470;2024-02-26T04:52:26;95542.49;;;5.34;44.09
47080;BME280;33067;49.296;14.470;2024-02-26T04:54:52;95534.40;;;5.41;43.50
47080;BME280;33067;49.296;14.470;2024-02-26T04:57:17;95534.44;;;5.25;44.06
47080;BME280;33067;49.296;14.470;2024-02-26T04:59:42;95537.77;;;5.36;43.73
47080;BME280;33067;49.296;14.470;2024-02-26T05:02:08;95539.73;;;5.07;44.02
47080;BME280;33067;49.296;14.470;2024-02-26T05:04:33;95535.30;;;4.83;44.13
47080;BME280;33067;49.296;14.470;2024-02-26T05:06:59;95532.41;;;5.10;43.36
47080;BME280;33067;49.296;14.470;2024-02-26T05:09:24;95528.24;;;4.57;44.42
47080;BME280;33067;49.296;14.470;2024-02-26T05:11:49;95529.06;;;4.70;44.55
47080;BME280;33067;49.296;14.470;2024-02-26T05:14:15;95528.35;;;4.36;44.20
47080;BME280;33067;49.296;14.470;2024-02-26T05:16:41;95535.12;;;3.99;44.97
47080;BME280;33067;49.296;14.470;2024-02-26T05:19:06;95536.80;;;4.51;44.17
47080;BME280;33067;49.296;14.470;2024-02-26T05:21:32;95538.57;;;4.45;44.22
47080;BME280;33067;49.296;14.470;2024-02-26T05:23:57;95543.59;;;4.54;44.74
47080;BME280;33067;49.296;14.470;2024-02-26T05:26:23;95542.30;;;4.41;44.65
47080;BME280;33067;49.296;14.470;2024-02-26T05:28:49;95549.57;;;4.52;44.62
47080;BME280;33067;49.296;14.470;2024-02-26T05:31:15;95554.87;;;4.72;44.45
47080;BME280;33067;49.296;14.470;2024-02-26T05:33:40;95559.82;;;5.07;44.27
47080;BME280;33067;49.296;14.470;2024-02-26T05:36:06;95558.50;;;4.97;44.09
47080;BME280;33067;49.296;14.470;2024-02-26T05:38:31;95558.44;;;4.70;44.26
47080;BME280;33067;49.296;14.470;2024-02-26T05:40:57;95562.42;;;4.88;43.96
47080;BME280;33067;49.296;14.470;2024-02-26T05:43:22;95561.42;;;4.73;43.76
47080;BME280;33067;49.296;14.470;2024-02-26T05:45:48;95562.69;;;4.81;44.29
47080;BME280;33067;49.296;14.470;2024-02-26T05:48:13;95567.90;;;5.10;43.67
47080;BME280;33067;49.296;14.470;2024-02-26T05:50:38;95574.84;;;4.51;44.14
47080;BME280;33067;49.296;14.470;2024-02-26T05:53:04;95583.06;;;4.88;44.18
47080;BME280;33067;49.296;14.470;2024-02-26T05:55:29;95588.68;;;4.71;44.36
47080;BME280;33067;49.296;14.470;2024-02-26T05:57:54;95592.40;;;4.89;43.47
47080;BME280;33067;49.296;14.470;2024-02-26T06:00:20;95592.16;;;3.85;45.23
47080;BME280;33067;49.296;14.470;2024-02-26T06:02:45;95595.23;;;4.02;45.03
47080;BME280;33067;49.296;14.470;2024-02-26T06:05:11;95589.64;;;4.73;44.63
47080;BME280;33067;49.296;14.470;2024-02-26T06:07:36;95590.71;;;4.05;45.26
47080;BME280;33067;49.296;14.470;2024-02-26T06:10:02;95594.50;;;4.87;44.97
47080;BME280;33067;49.296;14.470;2024-02-26T06:12:28;95589.54;;;4.26;44.47
47080;BME280;33067;49.296;14.470;2024-02-26T06:14:53;95595.63;;;4.06;45.50
47080;BME280;33067;49.296;14.470;2024-02-26T06:17:19;95599.20;;;4.39;44.88
47080;BME280;33067;49.296;14.470;2024-02-26T06:19:44;95595.93;;;4.54;44.17
47080;BME280;33067;49.296;14.470;2024-02-26T06:22:09;95593.93;;;4.23;44.76
47080;BME280;33067;49.296;14.470;2024-02-26T06:24:35;95598.99;;;4.30;44.85
47080;BME280;33067;49.296;14.470;2024-02-26T06:27:00;95603.20;;;4.30;45.08
47080;BME280;33067;49.296;14.470;2024-02-26T06:29:25;95607.04;;;4.36;44.93
47080;BME280;33067;49.296;14.470;2024-02-26T06:31:50;95607.62;;;4.55;44.96
47080;BME280;33067;49.296;14.470;2024-02-26T06:34:16;95610.91;;;4.58;44.98
47080;BME280;33067;49.296;14.470;2024-02-26T06:36:41;95616.70;;;4.54;45.08
47080;BME280;33067;49.296;14.470;2024-02-26T06:39:06;95617.06;;;4.70;45.14
47080;BME280;33067;49.296;14.470;2024-02-26T06:41:32;95622.41;;;4.90;45.02
47080;BME280;33067;49.296;14.470;2024-02-26T06:43:57;95629.75;;;4.86;44.58
47080;BME280;33067;49.296;14.470;2024-02-26T06:46:23;95626.92;;;5.16;44.33
47080;BME280;33067;49.296;14.470;2024-02-26T06:48:49;95625.01;;;5.32;43.76
47080;BME280;33067;49.296;14.470;2024-02-26T06:51:15;95618.46;;;5.33;43.90
47080;BME280;33067;49.296;14.470;2024-02-26T06:53:40;95620.77;;;5.18;43.69
47080;BME280;33067;49.296;14.470;2024-02-26T06:56:06;95622.33;;;5.42;44.21
47080;BME280;33067;49.296;14.470;2024-02-26T06:58:31;95624.94;;;5.16;44.40
47080;BME280;33067;49.296;14.470;2024-02-26T07:00:55;95623.60;;;5.37;44.47
47080;BME280;33067;49.296;14.470;2024-02-26T07:03:22;95619.02;;;4.98;44.73
47080;BME280;33067;49.296;14.470;2024-02-26T07:05:47;95620.55;;;5.31;45.17
47080;BME280;33067;49.296;14.470;2024-02-26T07:08:12;95619.77;;;5.65;43.74
47080;BME280;33067;49.296;14.470;2024-02-26T07:10:37;95617.18;;;5.05;44.43
47080;BME280;33067;49.296;14.470;2024-02-26T07:13:04;95616.12;;;5.35;44.64
47080;BME280;33067;49.296;14.470;2024-02-26T07:15:28;95616.32;;;5.20;44.73
47080;BME280;33067;49.296;14.470;2024-02-26T07:17:54;95614.89;;;5.14;45.07
47080;BME280;33067;49.296;14.470;2024-02-26T07:20:19;95617.78;;;5.48;44.53
47080;BME280;33067;49.296;14.470;2024-02-26T07:22:44;95618.87;;;5.20;45.05
47080;BME280;33067;49.296;14.470;2024-02-26T07:25:09;95623.14;;;5.39;44.70
47080;BME280;33067;49.296;14.470;2024-02-26T07:27:37;95624.21;;;5.22;44.72
47080;BME280;33067;49.296;14.470;2024-02-26T07:30:01;95626.19;;;5.32;45.13
47080;BME280;33067;49.296;14.470;2024-02-26T07:32:26;95628.80;;;5.13;45.28
47080;BME280;33067;49.296;14.470;2024-02-26T07:34:51;95622.31;;;5.46;44.90
47080;BME280;33067;49.296;14.470;2024-02-26T07:37:16;95618.66;;;5.16;45.19
47080;BME280;33067;49.296;14.470;2024-02-26T07:39:42;95625.01;;;5.45;44.99
47080;BME280;33067;49.296;14.470;2024-02-26T07:42:07;95627.19;;;5.43;44.86
47080;BME280;33067;49.296;14.470;2024-02-26T07:44:34;95627.82;;;5.43;45.05
47080;BME280;33067;49.296;14.470;2024-02-26T07:46:58;95636.81;;;4.88;45.36
47080;BME280;33067;49.296;14.470;2024-02-26T07:49:23;95637.74;;;4.26;47.00
47080;BME280;33067;49.296;14.470;2024-02-26T07:51:49;95641.29;;;5.00;46.31
47080;BME280;33067;49.296;14.470;2024-02-26T07:54:14;95643.11;;;4.48;46.76
47080;BME280;33067;49.296;14.470;2024-02-26T07:56:40;95644.45;;;3.95;47.39
47080;BME280;33067;49.296;14.470;2024-02-26T07:59:05;95651.42;;;4.36;47.57
47080;BME280;33067;49.296;14.470;2024-02-26T08:01:31;95652.95;;;4.61;46.98
47080;BME280;33067;49.296;14.470;2024-02-26T08:03:55;95653.77;;;5.20;46.39
47080;BME280;33067;49.296;14.470;2024-02-26T08:06:21;95655.48;;;4.96;45.95
47080;BME280;33067;49.296;14.470;2024-02-26T08:08:46;95659.11;;;4.73;46.59
47080;BME280;33067;49.296;14.470;2024-02-26T08:11:11;95664.56;;;4.82;46.30
47080;BME280;33067;49.296;14.470;2024-02-26T08:13:37;95662.04;;;5.16;46.42
47080;BME280;33067;49.296;14.470;2024-02-26T08:16:02;95657.39;;;4.91;46.46
47080;BME280;33067;49.296;14.470;2024-02-26T08:18:28;95661.52;;;4.66;46.92
47080;BME280;33067;49.296;14.470;2024-02-26T08:20:53;95666.03;;;4.70;46.97
47080;BME280;33067;49.296;14.470;2024-02-26T08:23:18;95668.53;;;4.89;47.20
47080;BME280;33067;49.296;14.470;2024-02-26T08:25:43;95665.12;;;5.27;46.55
47080;BME280;33067;49.296;14.470;2024-02-26T08:28:09;95660.19;;;5.54;46.04
47080;BME280;33067;49.296;14.470;2024-02-26T08:30:34;95656.40;;;5.18;46.36
47080;BME280;33067;49.296;14.470;2024-02-26T08:33:00;95658.29;;;4.84;46.42
47080;BME280;33067;49.296;14.470;2024-02-26T08:35:26;95655.69;;;5.38;46.01
47080;BME280;33067;49.296;14.470;2024-02-26T08:37:51;95660.24;;;5.42;46.29
47080;BME280;33067;49.296;14.470;2024-02-26T08:40:17;95661.50;;;5.93;45.86
47080;BME280;33067;49.296;14.470;2024-02-26T08:42:42;95661.09;;;5.75;45.58
47080;BME280;33067;49.296;14.470;2024-02-26T08:45:08;95661.09;;;5.88;45.62
47080;BME280;33067;49.296;14.470;2024-02-26T08:47:33;95664.38;;;6.28;45.27
47080;BME280;33067;49.296;14.470;2024-02-26T08:49:58;95664.16;;;5.59;45.34
47080;BME280;33067;49.296;14.470;2024-02-26T08:52:24;95660.09;;;5.58;46.11
47080;BME280;33067;49.296;14.470;2024-02-26T08:54:49;95660.97;;;5.87;45.87
47080;BME280;33067;49.296;14.470;2024-02-26T08:57:15;95661.65;;;5.56;45.81
47080;BME280;33067;49.296;14.470;2024-02-26T08:59:40;95665.29;;;5.68;46.00
47080;BME280;33067;49.296;14.470;2024-02-26T09:02:05;95666.70;;;6.29;45.45
47080;BME280;33067;49.296;14.470;2024-02-26T09:04:30;95669.93;;;6.54;45.09
47080;BME280;33067;49.296;14.470;2024-02-26T09:06:55;95672.20;;;6.33;45.57
47080;BME280;33067;49.296;14.470;2024-02-26T09:09:20;95674.84;;;6.32;45.34
47080;BME280;33067;49.296;14.470;2024-02-26T09:11:46;95681.55;;;5.99;45.79
47080;BME280;33067;49.296;14.470;2024-02-26T09:14:12;95681.96;;;5.76;46.06
47080;BME280;33067;49.296;14.470;2024-02-26T09:16:39;95685.51;;;6.03;46.72
47080;BME280;33067;49.296;14.470;2024-02-26T09:19:03;95686.43;;;6.04;46.32
47080;BME280;33067;49.296;14.470;2024-02-26T09:21:28;95680.86;;;6.33;46.19
47080;BME280;33067;49.296;14.470;2024-02-26T09:23:54;95683.94;;;6.27;46.47
47080;BME280;33067;49.296;14.470;2024-02-26T09:26:21;95689.10;;;5.71;46.35
47080;BME280;33067;49.296;14.470;2024-02-26T09:28:45;95691.16;;;6.08;46.66
47080;BME280;33067;49.296;14.470;2024-02-26T09:31:11;95690.90;;;5.76;46.98
47080;BME280;33067;49.296;14.470;2024-02-26T09:33:36;95695.15;;;5.60;46.82
47080;BME280;33067;49.296;14.470;2024-02-26T09:36:02;95694.25;;;6.18;45.97
47080;BME280;33067;49.296;14.470;2024-02-26T09:38:27;95698.19;;;6.03;46.32
47080;BME280;33067;49.296;14.470;2024-02-26T09:40:52;95697.24;;;6.58;45.43
47080;BME280;33067;49.296;14.470;2024-02-26T09:43:21;95700.52;;;6.86;45.68
47080;BME280;33067;49.296;14.470;2024-02-26T09:45:44;95703.14;;;6.78;45.28
47080;BME280;33067;49.296;14.470;2024-02-26T09:48:11;95704.55;;;6.81;45.04
47080;BME280;33067;49.296;14.470;2024-02-26T09:50:34;95707.53;;;6.53;45.70
47080;BME280;33067;49.296;14.470;2024-02-26T09:53:00;95708.80;;;6.49;47.11
47080;BME280;33067;49.296;14.470;2024-02-26T09:55:26;95711.30;;;5.88;47.56
47080;BME280;33067;49.296;14.470;2024-02-26T09:57:51;95706.01;;;6.29;46.78
47080;BME280;33067;49.296;14.470;2024-02-26T10:00:19;95703.21;;;6.46;46.98
47080;BME280;33067;49.296;14.470;2024-02-26T10:02:42;95704.05;;;6.54;47.08
47080;BME280;33067;49.296;14.470;2024-02-26T10:05:10;95708.37;;;6.41;47.45
47080;BME280;33067;49.296;14.470;2024-02-26T10:07:34;95713.27;;;6.15;47.84
47080;BME280;33067;49.296;14.470;2024-02-26T10:09:58;95713.46;;;6.41;47.47
47080;BME280;33067;49.296;14.470;2024-02-26T10:12:24;95714.92;;;6.42;47.41
47080;BME280;33067;49.296;14.470;2024-02-26T10:14:49;95713.13;;;6.30;47.65
47080;BME280;33067;49.296;14.470;2024-02-26T10:17:15;95715.84;;;5.86;48.87
47080;BME280;33067;49.296;14.470;2024-02-26T10:19:40;95712.93;;;6.32;48.27
47080;BME280;33067;49.296;14.470;2024-02-26T10:22:05;95712.80;;;6.31;48.22
47080;BME280;33067;49.296;14.470;2024-02-26T10:24:31;95709.33;;;6.48;48.50
47080;BME280;33067;49.296;14.470;2024-02-26T10:26:57;95711.74;;;6.58;48.17
47080;BME280;33067;49.296;14.470;2024-02-26T10:29:24;95714.46;;;6.71;47.41
47080;BME280;33067;49.296;14.470;2024-02-26T10:31:47;95715.04;;;7.66;46.15
47080;BME280;33067;49.296;14.470;2024-02-26T10:34:14;95712.57;;;7.37;46.55
47080;BME280;33067;49.296;14.470;2024-02-26T10:36:38;95716.22;;;7.89;46.24
47080;BME280;33067;49.296;14.470;2024-02-26T10:39:05;95719.44;;;7.94;45.01
47080;BME280;33067;49.296;14.470;2024-02-26T10:41:30;95720.07;;;7.92;45.06
47080;BME280;33067;49.296;14.470;2024-02-26T10:43:55;95723.54;;;7.77;45.19
47080;BME280;33067;49.296;14.470;2024-02-26T10:46:20;95722.93;;;7.50;45.75
47080;BME280;33067;49.296;14.470;2024-02-26T10:48:50;95721.65;;;8.36;44.87
47080;BME280;33067;49.296;14.470;2024-02-26T10:51:12;95720.02;;;8.50;44.42
47080;BME280;33067;49.296;14.470;2024-02-26T10:53:37;95716.90;;;8.73;43.78
47080;BME280;33067;49.296;14.470;2024-02-26T10:56:04;95722.32;;;8.63;44.01
47080;BME280;33067;49.296;14.470;2024-02-26T10:58:28;95720.12;;;8.39;44.49
47080;BME280;33067;49.296;14.470;2024-02-26T11:00:53;95716.10;;;8.82;43.50
47080;BME280;33067;49.296;14.470;2024-02-26T11:03:19;95716.58;;;8.79;43.78
47080;BME280;33067;49.296;14.470;2024-02-26T11:05:44;95717.19;;;8.62;43.98
47080;BME280;33067;49.296;14.470;2024-02-26T11:08:10;95714.78;;;8.61;44.05
47080;BME280;33067;49.296;14.470;2024-02-26T11:10:36;95712.23;;;8.13;44.03
47080;BME280;33067;49.296;14.470;2024-02-26T11:13:01;95711.43;;;8.51;44.51
47080;BME280;33067;49.296;14.470;2024-02-26T11:15:26;95711.54;;;8.48;44.53
47080;BME280;33067;49.296;14.470;2024-02-26T11:17:52;95705.02;;;8.60;44.09
47080;BME280;33067;49.296;14.470;2024-02-26T11:20:17;95702.73;;;8.59;43.89
47080;BME280;33067;49.296;14.470;2024-02-26T11:22:42;95695.13;;;8.58;43.98
47080;BME280;33067;49.296;14.470;2024-02-26T11:25:08;95693.95;;;8.58;43.83
47080;BME280;33067;49.296;14.470;2024-02-26T11:27:39;95692.83;;;9.02;43.70
47080;BME280;33067;49.296;14.470;2024-02-26T11:30:00;95692.76;;;8.62;43.91
47080;BME280;33067;49.296;14.470;2024-02-26T11:32:24;95694.02;;;9.19;43.34
47080;BME280;33067;49.296;14.470;2024-02-26T11:34:50;95693.61;;;9.01;42.87
47080;BME280;33067;49.296;14.470;2024-02-26T11:37:16;95694.47;;;8.93;42.97
47080;BME280;33067;49.296;14.470;2024-02-26T11:39:40;95692.12;;;9.39;43.42
47080;BME280;33067;49.296;14.470;2024-02-26T11:42:07;95694.07;;;9.11;43.13
47080;BME280;33067;49.296;14.470;2024-02-26T11:44:32;95696.79;;;9.46;43.00
47080;BME280;33067;49.296;14.470;2024-02-26T11:46:57;95691.12;;;9.08;42.96
47080;BME280;33067;49.296;14.470;2024-02-26T11:49:31;95684.08;;;9.53;42.85
47080;BME280;33067;49.296;14.470;2024-02-26T11:51:51;95682.57;;;9.64;42.06
47080;BME280;33067;49.296;14.470;2024-02-26T11:56:40;95679.21;;;8.92;42.79
47080;BME280;33067;49.296;14.470;2024-02-26T11:59:08;95680.08;;;9.32;42.19
47080;BME280;33067;49.296;14.470;2024-02-26T12:01:39;95680.15;;;9.52;41.86
47080;BME280;33067;49.296;14.470;2024-02-26T12:03:56;95684.24;;;9.30;41.56
47080;BME280;33067;49.296;14.470;2024-02-26T12:06:21;95682.62;;;9.21;41.95
47080;BME280;33067;49.296;14.470;2024-02-26T12:08:47;95681.88;;;9.36;42.46
47080;BME280;33067;49.296;14.470;2024-02-26T12:11:14;95682.41;;;9.42;41.77
47080;BME280;33067;49.296;14.470;2024-02-26T12:13:37;95681.89;;;9.25;42.14
47080;BME280;33067;49.296;14.470;2024-02-26T12:16:02;95682.02;;;9.00;42.94
47080;BME280;33067;49.296;14.470;2024-02-26T12:18:28;95686.80;;;9.21;42.65
47080;BME280;33067;49.296;14.470;2024-02-26T12:20:58;95695.96;;;9.20;42.55
47080;BME280;33067;49.296;14.470;2024-02-26T12:23:18;95698.12;;;8.89;43.13
47080;BME280;33067;49.296;14.470;2024-02-26T12:25:44;95700.22;;;9.40;43.07
47080;BME280;33067;49.296;14.470;2024-02-26T12:28:09;95699.59;;;9.80;42.29
47080;BME280;33067;49.296;14.470;2024-02-26T12:30:35;95704.00;;;9.78;42.28
47080;BME280;33067;49.296;14.470;2024-02-26T12:33:00;95706.69;;;9.11;42.85
47080;BME280;33067;49.296;14.470;2024-02-26T12:35:25;95702.17;;;9.60;41.65
47080;BME280;33067;49.296;14.470;2024-02-26T12:37:52;95701.10;;;9.47;41.76
47080;BME280;33067;49.296;14.470;2024-02-26T12:40:16;95697.08;;;9.24;42.68
47080;BME280;33067;49.296;14.470;2024-02-26T12:42:41;95693.91;;;9.11;43.11
47080;BME280;33067;49.296;14.470;2024-02-26T12:45:09;95697.64;;;9.40;42.75
47080;BME280;33067;49.296;14.470;2024-02-26T12:47:35;95701.47;;;9.77;42.03
47080;BME280;33067;49.296;14.470;2024-02-26T12:49:59;95704.38;;;9.63;41.89
47080;BME280;33067;49.296;14.470;2024-02-26T12:52:24;95705.12;;;9.73;41.81
47080;BME280;33067;49.296;14.470;2024-02-26T12:54:49;95707.31;;;10.05;41.36
47080;BME280;33067;49.296;14.470;2024-02-26T12:57:14;95713.50;;;10.21;41.06